ZSM YSPT-YSPT

Flight info

Callsign ZSM
Flight time 0h 5m
Altitude 4500
Route YSPT SWL YSPT
Aircraft AS50/M-SDE3FGHIRWY/H

Departure

Time 2026-04-12 03:49
Airport Southport Airport (YSPT)

Arrival

Time 2026-04-12 03:54
Airport Southport Airport (YSPT)
Time Latitude Longitude Altitude Speed Heading
2026-04-12 03:20 -27.92546 153.37057 -6 ft 0 kts 301°
2026-04-12 03:21 -27.92550 153.37033 12 ft 15 kts 279°
2026-04-12 03:21 -27.92318 153.37080 37 ft 62 kts 20°
2026-04-12 03:22 -27.91833 153.37336 135 ft 84 kts 23°
2026-04-12 03:22 -27.91321 153.37674 346 ft 85 kts 39°
2026-04-12 03:22 -27.91028 153.38282 480 ft 93 kts 82°
2026-04-12 03:22 -27.91252 153.38973 568 ft 101 kts 130°
2026-04-12 03:23 -27.91775 153.39561 571 ft 114 kts 133°
2026-04-12 03:23 -27.92402 153.40162 553 ft 120 kts 140°
2026-04-12 03:23 -27.92932 153.40581 560 ft 125 kts 144°
2026-04-12 03:23 -27.93662 153.41121 555 ft 124 kts 145°
2026-04-12 03:24 -27.94399 153.41617 447 ft 120 kts 159°
2026-04-12 03:24 -27.95098 153.41815 329 ft 86 kts 169°
2026-04-12 03:24 -27.95617 153.41995 142 ft 72 kts 157°
2026-04-12 03:24 -27.95967 153.42248 108 ft 43 kts 133°
2026-04-12 03:25 -27.96090 153.42396 21 ft 10 kts 82°
2026-04-12 03:25 -27.96098 153.42428 5 ft 0 kts 84°
2026-04-12 03:25 -27.96097 153.42429 2 ft 0 kts 83°
2026-04-12 03:26 -27.96097 153.42430 9 ft 2 kts 81°
2026-04-12 03:26 -27.96045 153.42376 41 ft 26 kts 358°
2026-04-12 03:26 -27.95940 153.42398 4 ft 6 kts 89°
2026-04-12 03:26 -27.95939 153.42404 2 ft 0 kts 93°
2026-04-12 03:33 -27.95939 153.42405 1 ft 1 kts 84°
2026-04-12 03:33 -27.95957 153.42400 18 ft 17 kts 201°
2026-04-12 03:33 -27.96100 153.42401 17 ft 2 kts 70°
2026-04-12 03:33 -27.96098 153.42426 11 ft 2 kts 82°
2026-04-12 03:34 -27.96098 153.42430 5 ft 0 kts 87°
2026-04-12 03:34 -27.96097 153.42429 5 ft 0 kts 94°
2026-04-12 03:44 -27.96098 153.42426 22 ft 4 kts 90°
2026-04-12 03:44 -27.96016 153.42360 84 ft 20 kts 354°
2026-04-12 03:45 -27.95937 153.42397 22 ft 5 kts 94°
2026-04-12 03:45 -27.95940 153.42405 15 ft 1 kts 85°
2026-04-12 03:45 -27.95939 153.42402 22 ft 0 kts 86°
2026-04-12 03:45 -27.95939 153.42404 12 ft 0 kts 91°
2026-04-12 03:46 -27.95940 153.42404 12 ft 0 kts 89°
2026-04-12 03:47 -27.95983 153.42356 93 ft 35 kts 193°
2026-04-12 03:47 -27.96420 153.42401 246 ft 84 kts 150°
2026-04-12 03:48 -27.96876 153.42920 358 ft 106 kts 136°
2026-04-12 03:48 -27.97539 153.43315 452 ft 110 kts 165°
2026-04-12 03:48 -27.98298 153.43504 523 ft 116 kts 171°
2026-04-12 03:48 -27.99099 153.43684 601 ft 117 kts 171°
2026-04-12 03:49 -27.99893 153.43865 735 ft 115 kts 171°
2026-04-12 03:49 -28.00657 153.44034 917 ft 110 kts 172°
2026-04-12 03:49 -28.01406 153.44214 943 ft 108 kts 172°
2026-04-12 03:49 -28.02108 153.44379 1062 ft 98 kts 177°
2026-04-12 03:50 -28.02498 153.43995 1079 ft 89 kts 284°
2026-04-12 03:50 -28.01881 153.43720 956 ft 109 kts 355°
2026-04-12 03:50 -28.01137 153.43758 998 ft 106 kts 359°
2026-04-12 03:50 -28.00417 153.43816 1062 ft 102 kts 359°
2026-04-12 03:51 -27.99727 153.43874 1153 ft 98 kts 359°
2026-04-12 03:51 -27.99039 153.43888 1166 ft 101 kts 354°
2026-04-12 03:51 -27.98337 153.43852 1191 ft 102 kts 350°
2026-04-12 03:51 -27.97624 153.43763 1198 ft 103 kts 347°
2026-04-12 03:52 -27.96916 153.43644 1221 ft 102 kts 345°
2026-04-12 03:52 -27.96225 153.43498 1268 ft 100 kts 343°
2026-04-12 03:52 -27.95548 153.43365 1336 ft 98 kts 346°
2026-04-12 03:52 -27.94862 153.43267 1283 ft 104 kts 351°
2026-04-12 03:53 -27.94146 153.43206 1211 ft 98 kts 340°
2026-04-12 03:53 -27.93671 153.42771 1219 ft 86 kts 294°
2026-04-12 03:53 -27.93728 153.42103 1033 ft 99 kts 233°
2026-04-12 03:53 -27.94434 153.41904 738 ft 114 kts 182°
2026-04-12 03:54 -27.95181 153.42016 454 ft 98 kts 179°
2026-04-12 03:54 -27.95749 153.42105 276 ft 62 kts 180°
2026-04-12 03:54 -27.95945 153.42302 87 ft 30 kts 85°
2026-04-12 03:54 -27.95939 153.42402 26 ft 3 kts 85°
2026-04-12 03:55 -27.95941 153.42402 20 ft 1 kts 86°
2026-04-12 03:55 -27.95939 153.42403 12 ft 0 kts 93°
2026-04-12 03:59 -27.95960 153.42401 53 ft 20 kts 185°
2026-04-12 03:59 -27.96351 153.42335 191 ft 59 kts 176°
2026-04-12 04:00 -27.96633 153.42505 212 ft 78 kts 144°
2026-04-12 04:00 -27.97007 153.42980 350 ft 78 kts 138°
2026-04-12 04:00 -27.97481 153.43206 478 ft 73 kts 176°
2026-04-12 04:00 -27.97985 153.43301 597 ft 77 kts 178°
2026-04-12 04:01 -27.98521 153.43375 711 ft 78 kts 179°
2026-04-12 04:01 -27.99079 153.43481 757 ft 87 kts 175°
2026-04-12 04:01 -27.99731 153.43604 680 ft 100 kts 177°
2026-04-12 04:01 -28.00422 153.43685 680 ft 99 kts 181°
2026-04-12 04:02 -28.01107 153.43743 697 ft 98 kts 180°
2026-04-12 04:02 -28.02482 153.43906 693 ft 89 kts 217°
2026-04-12 04:02 -28.02272 153.43558 735 ft 89 kts 359°
2026-04-12 04:03 -28.01603 153.43566 665 ft 101 kts 359°
2026-04-12 04:03 -28.00886 153.43515 610 ft 104 kts 355°
2026-04-12 04:03 -28.00167 153.43445 605 ft 103 kts 354°
2026-04-12 04:03 -27.99454 153.43382 609 ft 102 kts 356°
2026-04-12 04:04 -27.98762 153.43342 653 ft 97 kts 357°
2026-04-12 04:04 -27.98101 153.43322 707 ft 96 kts 358°
2026-04-12 04:04 -27.97420 153.43303 683 ft 100 kts 358°
2026-04-12 04:04 -27.96716 153.43326 686 ft 101 kts
2026-04-12 04:05 -27.96021 153.43389 718 ft 99 kts
2026-04-12 04:05 -27.95337 153.43430 745 ft 97 kts 360°
2026-04-12 04:05 -27.94667 153.43423 797 ft 95 kts 358°
2026-04-12 04:05 -27.94014 153.43376 845 ft 93 kts 347°
2026-04-12 04:06 -27.93530 153.42911 763 ft 97 kts 296°
2026-04-12 04:06 -27.93615 153.42181 687 ft 102 kts 237°
2026-04-12 04:06 -27.94296 153.41936 580 ft 114 kts 182°
2026-04-12 04:06 -27.95097 153.42060 437 ft 109 kts 182°
2026-04-12 04:07 -27.95711 153.42146 290 ft 73 kts 186°
2026-04-12 04:07 -27.95936 153.42331 68 ft 20 kts 81°
2026-04-12 04:07 -27.95938 153.42400 16 ft 1 kts 79°
2026-04-12 04:07 -27.95938 153.42404 12 ft 0 kts 93°
2026-04-12 04:08 -27.95938 153.42400 28 ft 1 kts 96°
2026-04-12 04:08 -27.96027 153.42396 34 ft 19 kts 162°
2026-04-12 04:09 -27.96095 153.42417 17 ft 4 kts 97°
2026-04-12 04:09 -27.96096 153.42428 13 ft 1 kts 94°
2026-04-12 04:09 -27.96097 153.42428 13 ft 0 kts 93°
2026-04-12 08:54 -27.96097 153.42424 22 ft 3 kts 82°
2026-04-12 08:54 -27.95996 153.42375 36 ft 27 kts
2026-04-12 08:54 -27.95939 153.42402 12 ft 0 kts 91°
2026-04-12 09:24 -27.95941 153.42399 30 ft 9 kts 169°
2026-04-12 09:24 -27.96135 153.42373 78 ft 45 kts 178°
2026-04-12 09:24 -27.96481 153.42369 161 ft 54 kts 173°
2026-04-12 09:25 -27.96528 153.42118 178 ft 61 kts 334°
2026-04-12 09:25 -27.96063 153.42080 221 ft 70 kts 353°
2026-04-12 09:25 -27.95744 153.42277 267 ft 45 kts 162°
2026-04-12 09:25 -27.95937 153.42352 51 ft 15 kts 94°
2026-04-12 09:26 -27.95938 153.42402 11 ft 0 kts 90°
2026-04-12 09:26 -27.95943 153.42393 44 ft 15 kts 185°
2026-04-12 09:26 -27.96107 153.42390 43 ft 9 kts 59°
2026-04-12 09:26 -27.96101 153.42397 43 ft 11 kts 65°
2026-04-12 09:27 -27.96070 153.42415 54 ft 4 kts 129°
2026-04-12 09:27 -27.96055 153.42399 87 ft 3 kts 112°
2026-04-12 09:27 -27.96081 153.42417 49 ft 7 kts 102°
2026-04-12 09:27 -27.96111 153.42418 110 ft 3 kts 44°
2026-04-12 09:28 -27.95991 153.42332 236 ft 37 kts
2026-04-12 09:28 -27.95782 153.42085 291 ft 55 kts 252°
2026-04-12 09:28 -27.96136 153.42155 436 ft 63 kts 138°
2026-04-12 09:28 -27.96435 153.42325 600 ft 48 kts 230°
2026-04-12 09:29 -27.96233 153.42029 525 ft 72 kts 356°
2026-04-12 09:29 -27.95979 153.42310 225 ft 19 kts 224°
2026-04-12 09:29 -27.95946 153.42348 197 ft 4 kts 269°
2026-04-12 09:29 -27.95948 153.42352 225 ft 3 kts 258°
2026-04-12 09:30 -27.95956 153.42323 274 ft 23 kts 310°
2026-04-12 09:30 -27.95783 153.42134 278 ft 45 kts 182°
2026-04-12 09:30 -27.96028 153.42331 173 ft 82 kts 148°
2026-04-12 09:30 -27.96182 153.42081 149 ft 76 kts 346°
2026-04-12 09:31 -27.95944 153.42332 64 ft 26 kts 81°
2026-04-12 09:31 -27.95938 153.42404 10 ft 0 kts 96°